Contact Us:
Email: info@sawbill.com
Phone: (218)663-7150
Fax: (218)663-7980
Mail: 4620 Sawbill Trail
Box 2129
Tofte, MN 55615


Powered by
Movable Type 3.15
 
Sawbill Weather History Archives: August 2006
Current Sawbill Weather History | « July 2006 | September 2006 »


Date

High
Temperature

Low
Temperature

Barometric
Pressure

Relative
Humidity 7AM

9 AM
Temperature

Moisture

Snow

8/31/06 77 47 30.21 79% 47 0
8/30/06 74 45 30.26 85% 49 0
8/29/06 74 43 30.21 80% 44 0
8/28/06 84 56 30.13 73% 57 0
8/27/06 86 52 30.01 86% 57 0
8/26/06 79 50 30.06 83% 52 0
8/25/06 63 57 30.00 89% 59 .11"
8/23/06 81 53 30.04 85% 56 0
8/22/06 79 48 30.07 77% 55 0
8/21/06 79 48 30.18 77% 49 0
8/20/06 83 52 30.03 82% 62 0
8/19/06 78 50 30.13 83% 52 0
8/18/06 79 58 30.12 87% 59 .10"
8/17/06 84 66 30.09 83% 68 0
8/16/06 80 51 30.06 85% 66 0
8/15/06 79 51 30.14 83% 56 0
8/14/06 73 52 29.92 83% 55 0
8/13/06 68 56 29.85 88% 56 1.10"
8/12/06 78 57 29.92 90% 62 Trace
8/11/06 76 46 30.12 87% 56 0
8/10/06 77 43 30.21 81% 46 0
8/9/06 83 61 30.14 81% 61 0
8/8/06 83 54 30.05 83% 61 0
8/7/06 80 50 30.27 84% 50 0
8/6/06 83 57 30.15 79% 58 0
8/5/06 82 56 29.91 77% 62 0
8/4/06 77 53 30.07 85% 56 .10"
8/3/06 85 52 30.13 80% 53 0
8/2/06 82 60 29.95 80% 60 0
8/1/06 84 63 29.87 85% 64 .05"
 


Home I Trip Planning I Rentals and Outfitting I Reservations I Campgrounds I Sawbill Store I Sawbill News I Contact

© 1997 - 2017, Sawbill Canoe Outfitters, Inc. I Privacy Policy